Santa Paula, California
Current Conditions -  °F | °C
As of 12:55 PM on Thursday 27 Nov 2014 (Local Time) from KCMA Reporting Station
Clear Clear  
Wind Chill: 28°   Ceiling: Unl
Heat Index: 28°   Visibility: 10mi
Dew Point:   Wind: 7mph
Humidity: 28%   Direction: 200°SSW
Pressure: 30.02"   Gusts: NA
Location:  34.35°N, 119.05°W
Report Text: KCMA 272055Z 20006KT 10SM CLR 28/08 A3002 RMK AO2 SLP175 T02780078 58025
Loading
Personal Weather Stations






























Interactive Weather Map New forecast layout! Learn more

10-Day Weather Forecast

Advertisements
Track Severe Weather on mobile